Time;durP1;ratioP1;P1;durP2;ratioP2;P2;SDS_P1;SDS_P2;PMS_P1;PMS_P2;Temp;Humidity;BMP_temperature;BMP_pressure;BME280_temperature;BME280_humidity;BME280_pressure;Samples;Min_cycle;Max_cycle;Signal;HPM_P1;HPM_P2
2022/11/23 05:44:05;;;;;;;14.73;8.88;;;;;;;;;;5230651;23;20058;-62
2022/11/23 05:46:31;;;;;;;15.10;8.60;;;;;;;;;;4994325;28;20035;-67
2022/11/23 05:48:57;;;;;;;15.90;9.38;;;;;;;;;;4994187;28;20532;-61
2022/11/23 05:51:23;;;;;;;13.85;8.43;;;;;;;;;;4994338;28;20034;-65
2022/11/23 05:53:50;;;;;;;14.57;7.72;;;;;;;;;;4993904;28;20096;-62
2022/11/23 05:56:16;;;;;;;16.38;8.52;;;;;;;;;;4994417;28;20023;-61
2022/11/23 05:58:42;;;;;;;16.92;10.55;;;;;;;;;;4994253;28;20073;-67
2022/11/23 06:01:08;;;;;;;16.30;9.55;;;;;;;;;;4976752;28;20394;-62
2022/11/23 06:03:35;;;;;;;17.80;10.00;;;;;;;;;;4993918;28;20027;-67
2022/11/23 06:06:01;;;;;;;17.63;10.25;;;;;;;;;;4993602;28;20045;-67
2022/11/23 06:08:27;;;;;;;17.40;9.60;;;;;;;;;;4993720;28;20056;-63
2022/11/23 06:10:53;;;;;;;15.60;9.57;;;;;;;;;;4993579;28;20030;-63
2022/11/23 06:13:19;;;;;;;18.00;10.30;;;;;;;;;;4993471;28;20062;-65
2022/11/23 06:15:45;;;;;;;17.58;9.88;;;;;;;;;;4992952;28;20089;-63
2022/11/23 06:18:11;;;;;;;17.85;9.70;;;;;;;;;;4993615;28;20479;-67
2022/11/23 06:20:37;;;;;;;16.63;9.32;;;;;;;;;;4993849;28;20061;-66
2022/11/23 06:23:03;;;;;;;15.05;8.90;;;;;;;;;;4993774;28;20026;-69
2022/11/23 06:25:29;;;;;;;16.88;9.52;;;;;;;;;;4993697;28;20026;-64
2022/11/23 06:27:57;;;;;;;18.42;11.23;;;;;;;;;;4993525;28;20034;-68
2022/11/23 06:30:23;;;;;;;17.42;10.25;;;;;;;;;;4993553;28;20026;-67
2022/11/23 06:32:50;;;;;;;24.58;12.50;;;;;;;;;;4993343;28;20084;-62
2022/11/23 06:35:16;;;;;;;22.38;11.77;;;;;;;;;;4993202;28;20038;-71
2022/11/23 06:37:42;;;;;;;20.05;10.70;;;;;;;;;;4992446;28;20047;-67
2022/11/23 06:40:09;;;;;;;16.88;9.73;;;;;;;;;;4993046;28;20413;-66
2022/11/23 06:42:35;;;;;;;17.77;9.40;;;;;;;;;;4989439;28;20051;-63
2022/11/23 06:45:01;;;;;;;16.95;10.15;;;;;;;;;;4973660;28;20038;-64
2022/11/23 06:47:28;;;;;;;21.52;11.38;;;;;;;;;;4973793;28;20027;-65
2022/11/23 06:49:54;;;;;;;21.90;11.95;;;;;;;;;;4973675;28;20065;-63
2022/11/23 06:52:20;;;;;;;21.40;11.65;;;;;;;;;;4969985;28;20039;-61
2022/11/23 06:54:46;;;;;;;18.83;10.77;;;;;;;;;;4964357;28;20049;-61
2022/11/23 06:57:12;;;;;;;19.38;10.50;;;;;;;;;;4963736;28;20054;-64
2022/11/23 06:59:38;;;;;;;19.40;11.60;;;;;;;;;;4962339;28;20030;-60
2022/11/23 07:02:05;;;;;;;18.20;10.45;;;;;;;;;;4961735;28;20375;-63
2022/11/23 07:04:31;;;;;;;20.90;10.20;;;;;;;;;;4963499;28;20047;-59
2022/11/23 07:06:57;;;;;;;19.65;10.38;;;;;;;;;;4961992;28;20034;-59
2022/11/23 07:09:23;;;;;;;20.00;11.25;;;;;;;;;;4962092;28;20058;-65
2022/11/23 07:11:49;;;;;;;19.77;11.35;;;;;;;;;;4963059;28;20022;-57
2022/11/23 07:14:15;;;;;;;17.88;10.40;;;;;;;;;;4961685;28;20035;-57
2022/11/23 07:16:41;;;;;;;17.15;10.07;;;;;;;;;;4961960;28;20026;-60
2022/11/23 07:19:08;;;;;;;16.98;10.35;;;;;;;;;;4962703;28;20042;-59
2022/11/23 07:21:34;;;;;;;16.38;9.20;;;;;;;;;;4961420;28;20098;-64
2022/11/23 07:24:00;;;;;;;16.83;9.80;;;;;;;;;;4962175;28;20467;-59
2022/11/23 07:26:26;;;;;;;17.08;9.15;;;;;;;;;;4963017;28;20519;-66
2022/11/23 07:28:52;;;;;;;17.85;9.95;;;;;;;;;;4972857;28;20035;-63
2022/11/23 07:31:18;;;;;;;17.58;9.85;;;;;;;;;;4973079;28;20034;-64
2022/11/23 07:33:45;;;;;;;19.25;9.30;;;;;;;;;;4969288;28;20125;-68
2022/11/23 07:36:11;;;;;;;15.82;9.13;;;;;;;;;;4961816;28;20015;-59
2022/11/23 07:38:37;;;;;;;15.50;9.50;;;;;;;;;;4960207;28;20097;-62
2022/11/23 07:41:03;;;;;;;13.85;8.57;;;;;;;;;;4960372;28;20113;-62
2022/11/23 07:43:29;;;;;;;13.90;8.43;;;;;;;;;;4961825;28;20046;-66
2022/11/23 07:45:56;;;;;;;14.73;8.35;;;;;;;;;;4981930;28;20025;-61
2022/11/23 07:48:22;;;;;;;15.55;8.02;;;;;;;;;;4972055;28;20030;-62
2022/11/23 07:50:51;;;;;;;16.55;9.43;;;;;;;;;;4980723;28;20361;-61
2022/11/23 07:53:17;;;;;;;15.82;7.97;;;;;;;;;;4981611;28;20406;-61
2022/11/23 07:55:45;;;;;;;16.85;8.45;;;;;;;;;;4979750;28;20054;-68
2022/11/23 07:58:11;;;;;;;14.55;8.35;;;;;;;;;;4980016;28;20035;-65
2022/11/23 08:00:37;;;;;;;16.13;8.30;;;;;;;;;;4976708;28;20089;-60
2022/11/23 08:03:03;;;;;;;12.15;7.15;;;;;;;;;;4980682;28;20037;-62
2022/11/23 08:05:34;;;;;;;14.68;8.32;;;;;;;;;;4980170;28;20026;-61
2022/11/23 08:08:00;;;;;;;18.60;8.00;;;;;;;;;;4978688;28;20471;-60
2022/11/23 08:10:27;;;;;;;15.30;7.63;;;;;;;;;;4981923;28;20030;-64
2022/11/23 08:12:56;;;;;;;14.40;8.30;;;;;;;;;;4981135;28;20082;-63
2022/11/23 08:15:22;;;;;;;14.35;7.88;;;;;;;;;;4985998;28;20034;-61
2022/11/23 08:17:49;;;;;;;14.85;7.65;;;;;;;;;;4979234;28;20065;-62
2022/11/23 08:20:15;;;;;;;12.73;7.00;;;;;;;;;;4985893;28;20502;-60
2022/11/23 08:22:41;;;;;;;12.50;7.18;;;;;;;;;;4990604;28;20434;-60
2022/11/23 08:25:07;;;;;;;14.18;7.03;;;;;;;;;;4991577;28;20101;-62
2022/11/23 08:27:33;;;;;;;14.60;7.20;;;;;;;;;;4987761;28;20031;-63
2022/11/23 08:29:59;;;;;;;10.65;6.43;;;;;;;;;;4980409;28;20019;-62
2022/11/23 08:32:25;;;;;;;11.93;6.90;;;;;;;;;;4979880;28;20035;-61
2022/11/23 08:34:51;;;;;;;11.68;6.57;;;;;;;;;;4978457;28;20121;-61
2022/11/23 08:37:17;;;;;;;11.45;6.85;;;;;;;;;;4980737;28;20121;-65
2022/11/23 08:39:43;;;;;;;13.52;6.80;;;;;;;;;;4983663;28;20538;-66
2022/11/23 08:42:09;;;;;;;11.48;6.63;;;;;;;;;;4982376;28;20121;-60
2022/11/23 08:44:35;;;;;;;11.07;6.05;;;;;;;;;;4965679;28;20145;-61
2022/11/23 08:47:01;;;;;;;10.15;6.25;;;;;;;;;;4963690;28;20031;-60
2022/11/23 08:49:27;;;;;;;11.00;6.90;;;;;;;;;;4962536;28;20034;-62
2022/11/23 08:51:53;;;;;;;15.23;7.65;;;;;;;;;;4966804;28;20035;-61
2022/11/23 08:54:22;;;;;;;12.93;6.82;;;;;;;;;;4968265;28;20039;-61
2022/11/23 08:56:48;;;;;;;13.05;6.18;;;;;;;;;;4945963;28;20562;-66
2022/11/23 08:59:16;;;;;;;13.02;6.68;;;;;;;;;;4955739;29;20109;-62
2022/11/23 09:01:42;;;;;;;15.10;7.57;;;;;;;;;;4955131;29;20039;-60
2022/11/23 11:31:24;;;;;;;25.95;16.58;;;;;;;;;;4957008;23;20058;-61
2022/11/23 11:34:10;;;;;;;29.38;17.23;;;;;;;;;;5011266;28;20041;-62
2022/11/23 11:36:43;;;;;;;23.60;16.45;;;;;;;;;;4994011;28;20041;-62
2022/11/23 11:39:20;;;;;;;27.92;16.48;;;;;;;;;;5010773;28;20026;-61
2022/11/23 11:41:46;;;;;;;23.48;15.77;;;;;;;;;;5005128;28;20022;-62
2022/11/23 11:44:15;;;;;;;27.27;16.65;;;;;;;;;;4991354;28;20037;-62
2022/11/23 11:46:44;;;;;;;29.63;19.13;;;;;;;;;;4991846;28;20034;-62
2022/11/23 11:49:13;;;;;;;25.23;17.90;;;;;;;;;;4991892;28;20556;-62
2022/11/23 11:51:45;;;;;;;24.55;16.55;;;;;;;;;;4991802;28;20058;-66
2022/11/23 11:54:20;;;;;;;27.60;17.48;;;;;;;;;;4991907;28;20041;-61
2022/11/23 11:56:49;;;;;;;24.75;16.50;;;;;;;;;;4991761;28;20021;-62
2022/11/23 11:59:27;;;;;;;25.10;17.10;;;;;;;;;;4991421;28;20105;-62
2022/11/23 12:02:00;;;;;;;24.15;16.67;;;;;;;;;;4991481;28;20065;-63
2022/11/23 12:04:35;;;;;;;24.13;16.77;;;;;;;;;;4991618;28;20030;-62
2022/11/23 12:07:08;;;;;;;24.52;17.02;;;;;;;;;;4991097;28;20034;-61
2022/11/23 12:09:33;;;;;;;;;;;;;;;;;;4991491;28;20038;-64
2022/11/23 12:11:59;;;;;;;31.17;19.65;;;;;;;;;;4990639;28;19917;-66
2022/11/23 12:14:26;;;;;;;26.17;18.10;;;;;;;;;;4991237;28;20089;-62
2022/11/23 12:17:00;;;;;;;28.88;19.08;;;;;;;;;;4991110;28;20568;-62
2022/11/23 12:19:42;;;;;;;29.58;18.40;;;;;;;;;;4991487;28;20715;-61
2022/11/23 12:22:08;;;;;;;21.05;15.80;;;;;;;;;;4991417;28;20038;-62
2022/11/23 12:24:52;;;;;;;24.70;16.10;;;;;;;;;;4991633;28;20050;-67
2022/11/23 12:27:21;;;;;;;24.70;15.98;;;;;;;;;;4991534;28;20041;-62
2022/11/23 12:30:06;;;;;;;24.30;16.55;;;;;;;;;;4982038;28;20469;-66
2022/11/23 12:32:39;;;;;;;25.13;16.45;;;;;;;;;;4954353;28;20081;-61
2022/11/23 12:35:15;;;;;;;24.90;17.52;;;;;;;;;;4953841;28;20391;-61
2022/11/23 12:37:50;;;;;;;23.38;16.58;;;;;;;;;;4971634;28;20051;-61
2022/11/23 12:40:16;;;;;;;22.10;16.10;;;;;;;;;;4971759;28;20030;-62
2022/11/23 12:42:47;;;;;;;22.73;16.48;;;;;;;;;;4972122;28;20038;-61
2022/11/23 12:45:13;;;;;;;22.08;15.68;;;;;;;;;;4971565;28;20134;-66
2022/11/23 12:47:42;;;;;;;22.05;15.13;;;;;;;;;;4971559;28;20467;-61
2022/11/23 12:50:24;;;;;;;20.88;14.35;;;;;;;;;;4971628;28;20027;-61
2022/11/23 12:53:08;;;;;;;18.10;13.40;;;;;;;;;;4971301;28;20104;-63
2022/11/23 12:55:53;;;;;;;21.23;13.00;;;;;;;;;;4971545;28;20126;-67
2022/11/23 12:58:23;;;;;;;16.63;11.65;;;;;;;;;;4971337;28;20034;-63
2022/11/23 13:01:01;;;;;;;14.85;9.88;;;;;;;;;;4971131;28;20039;-61
2022/11/23 13:03:39;;;;;;;12.63;9.38;;;;;;;;;;4971545;28;20433;-65
2022/11/23 13:06:18;;;;;;;12.10;9.63;;;;;;;;;;4971425;28;20030;-62
2022/11/23 13:09:02;;;;;;;10.60;8.18;;;;;;;;;;4971770;28;20075;-62
2022/11/23 13:11:31;;;;;;;10.05;7.82;;;;;;;;;;4971512;28;20039;-61
2022/11/23 13:14:06;;;;;;;16.42;11.45;;;;;;;;;;4971137;28;20479;-59
2022/11/23 13:16:38;;;;;;;14.38;9.40;;;;;;;;;;4971361;28;20603;-60
2022/11/23 13:19:26;;;;;;;12.20;8.20;;;;;;;;;;4971498;28;20073;-63
2022/11/23 13:21:53;;;;;;;12.00;8.95;;;;;;;;;;4971328;28;20478;-62
2022/11/23 13:24:25;;;;;;;12.48;9.48;;;;;;;;;;4972903;28;20081;-63
2022/11/23 13:26:51;;;;;;;;;;;;;;;;;;4975640;28;20027;-61
2022/11/23 13:29:35;;;;;;;14.10;8.82;;;;;;;;;;4974497;28;19918;-62
2022/11/23 13:32:20;;;;;;;12.05;8.77;;;;;;;;;;4974796;28;20498;-62
2022/11/23 13:34:47;;;;;;;12.50;8.95;;;;;;;;;;4974694;28;20035;-61
2022/11/23 13:37:13;;;;;;;11.10;7.90;;;;;;;;;;4974889;28;20118;-62
2022/11/23 13:39:57;;;;;;;9.25;6.93;;;;;;;;;;4974445;28;20117;-62
2022/11/23 13:42:27;;;;;;;9.88;7.22;;;;;;;;;;4974564;28;20030;-62
2022/11/23 13:45:12;;;;;;;10.48;7.13;;;;;;;;;;4974121;28;20031;-62
2022/11/23 13:47:38;;;;;;;7.43;6.05;;;;;;;;;;4974618;28;20573;-62
2022/11/23 13:50:09;;;;;;;9.30;6.07;;;;;;;;;;4974226;28;20505;-62
2022/11/23 13:52:35;;;;;;;8.13;6.43;;;;;;;;;;4976577;28;20034;-62
2022/11/23 13:55:04;;;;;;;11.13;5.90;;;;;;;;;;4956721;28;20098;-62
2022/11/23 13:57:31;;;;;;;6.45;5.03;;;;;;;;;;4974781;28;20023;-61
2022/11/23 14:00:15;;;;;;;7.75;4.72;;;;;;;;;;4974380;28;20039;-67
2022/11/23 14:02:41;;;;;;;9.43;5.57;;;;;;;;;;4974359;28;20037;-65
2022/11/23 14:05:26;;;;;;;7.00;5.00;;;;;;;;;;4974302;28;20030;-62
2022/11/23 14:07:52;;;;;;;7.40;5.97;;;;;;;;;;4974017;28;20459;-62
2022/11/23 14:10:21;;;;;;;8.35;5.45;;;;;;;;;;4974201;28;20467;-62
2022/11/23 14:12:57;;;;;;;8.13;5.13;;;;;;;;;;4973730;28;20045;-65
2022/11/23 14:15:25;;;;;;;7.78;4.72;;;;;;;;;;4973667;28;20038;-62
2022/11/23 14:18:09;;;;;;;6.55;4.80;;;;;;;;;;4973991;28;20030;-62
2022/11/23 14:20:54;;;;;;;6.68;4.97;;;;;;;;;;4973666;28;20529;-62
2022/11/23 14:23:38;;;;;;;10.35;5.80;;;;;;;;;;4973988;28;20031;-62
2022/11/23 14:26:23;;;;;;;13.90;7.00;;;;;;;;;;4974044;28;20027;-62
2022/11/23 14:29:07;;;;;;;10.15;6.60;;;;;;;;;;4973586;28;20039;-62
2022/11/23 14:31:33;;;;;;;11.52;6.75;;;;;;;;;;4973718;28;20053;-62
2022/11/23 14:34:18;;;;;;;8.43;5.57;;;;;;;;;;4973431;28;20076;-63
2022/11/23 14:36:44;;;;;;;10.57;6.78;;;;;;;;;;4973047;28;20078;-62
2022/11/23 14:39:22;;;;;;;8.90;5.97;;;;;;;;;;4973626;28;20035;-62
2022/11/23 14:41:57;;;;;;;8.65;5.30;;;;;;;;;;4973470;28;20027;-62
2022/11/23 14:44:28;;;;;;;8.88;5.25;;;;;;;;;;4972642;28;20037;-62
2022/11/23 14:47:01;;;;;;;11.48;5.65;;;;;;;;;;4975581;28;20034;-62
2022/11/23 14:49:27;;;;;;;9.90;6.25;;;;;;;;;;4973278;28;20046;-62
2022/11/23 14:51:53;;;;;;;9.48;5.60;;;;;;;;;;4973140;28;20573;-63
2022/11/23 14:54:19;;;;;;;6.68;5.18;;;;;;;;;;4955261;28;20478;-62
2022/11/23 14:56:53;;;;;;;8.75;4.90;;;;;;;;;;4973430;28;20027;-62
2022/11/23 14:59:20;;;;;;;7.82;5.00;;;;;;;;;;4981991;28;20038;-62
2022/11/23 15:01:58;;;;;;;7.88;4.68;;;;;;;;;;4993056;28;20022;-62
2022/11/23 15:04:35;;;;;;;8.48;4.53;;;;;;;;;;4986556;28;20046;-62
2022/11/23 15:07:06;;;;;;;8.23;4.68;;;;;;;;;;4992733;28;20018;-62
2022/11/23 15:09:41;;;;;;;7.18;4.80;;;;;;;;;;4976677;28;20498;-64
2022/11/23 15:12:07;;;;;;;7.95;5.05;;;;;;;;;;4973168;28;20158;-73
2022/11/23 15:14:34;;;;;;;9.40;5.40;;;;;;;;;;4988213;28;20069;-62
2022/11/23 15:17:13;;;;;;;9.98;6.60;;;;;;;;;;4974874;28;20034;-61
2022/11/23 15:19:41;;;;;;;10.23;6.22;;;;;;;;;;4989087;28;20045;-62
2022/11/23 15:22:13;;;;;;;8.65;6.22;;;;;;;;;;5011722;28;20030;-62
2022/11/23 15:24:39;;;;;;;8.35;6.03;;;;;;;;;;5000166;28;20038;-61
2022/11/23 15:27:05;;;;;;;13.43;6.60;;;;;;;;;;4992475;28;20037;-62
2022/11/23 15:29:31;;;;;;;11.88;6.57;;;;;;;;;;5005874;28;20038;-64
2022/11/23 15:31:58;;;;;;;10.15;7.13;;;;;;;;;;4996018;28;20077;-62
2022/11/23 15:34:24;;;;;;;11.07;7.07;;;;;;;;;;4974399;28;20490;-64
2022/11/23 15:36:51;;;;;;;12.40;8.05;;;;;;;;;;4991680;28;20026;-63
2022/11/23 15:39:19;;;;;;;14.27;8.95;;;;;;;;;;4999420;28;20029;-61
2022/11/23 15:41:46;;;;;;;12.10;7.60;;;;;;;;;;5011542;28;20101;-64
2022/11/23 15:44:32;;;;;;;12.20;7.13;;;;;;;;;;4991417;28;20389;-61
2022/11/23 15:46:59;;;;;;;9.05;5.25;;;;;;;;;;4979673;28;20411;-61
2022/11/23 15:49:25;;;;;;;7.65;4.50;;;;;;;;;;4991341;28;20037;-70
2022/11/23 15:51:52;;;;;;;8.75;4.68;;;;;;;;;;4977643;28;20078;-61
2022/11/23 15:54:18;;;;;;;6.30;4.05;;;;;;;;;;4971965;28;20383;-62
2022/11/23 15:56:47;;;;;;;7.60;4.25;;;;;;;;;;4972389;28;20077;-61
2022/11/23 15:59:25;;;;;;;7.63;4.15;;;;;;;;;;4971726;28;20033;-60
2022/11/23 16:01:52;;;;;;;6.63;3.95;;;;;;;;;;4971924;28;20834;-61
2022/11/23 16:04:28;;;;;;;6.25;4.13;;;;;;;;;;4972114;28;20382;-60
2022/11/23 16:06:55;;;;;;;7.50;3.60;;;;;;;;;;4971524;28;20042;-60
2022/11/23 16:09:46;;;;;;;7.05;3.92;;;;;;;;;;4984744;28;20030;-62
2022/11/23 16:12:24;;;;;;;5.45;3.50;;;;;;;;;;4972922;28;20046;-61
2022/11/23 16:14:50;;;;;;;5.32;3.40;;;;;;;;;;4971495;28;20034;-61
2022/11/23 16:17:18;;;;;;;6.03;3.20;;;;;;;;;;4971822;28;20027;-59
2022/11/23 16:19:48;;;;;;;7.07;3.30;;;;;;;;;;4972056;28;20146;-63
2022/11/23 16:22:21;;;;;;;5.50;3.53;;;;;;;;;;4972708;28;20094;-62
2022/11/23 16:24:47;;;;;;;;;;;;;;;;;;4955440;28;20038;-61
2022/11/23 16:27:14;;;;;;;8.57;4.05;;;;;;;;;;4954970;28;20387;-62
2022/11/23 16:29:42;;;;;;;6.65;3.83;;;;;;;;;;4989958;28;20129;-65
2022/11/23 16:32:21;;;;;;;7.95;3.72;;;;;;;;;;4997701;28;20057;-62
2022/11/23 16:34:47;;;;;;;4.78;3.38;;;;;;;;;;4995213;28;20481;-63
2022/11/23 16:37:13;;;;;;;6.18;3.78;;;;;;;;;;4991748;28;20026;-64
2022/11/23 16:39:39;;;;;;;6.30;3.83;;;;;;;;;;4976338;28;20035;-65
2022/11/23 16:42:05;;;;;;;6.10;3.88;;;;;;;;;;4975418;28;20022;-61
2022/11/23 16:44:31;;;;;;;5.90;3.80;;;;;;;;;;4991105;28;20026;-63
2022/11/23 16:47:12;;;;;;;7.75;4.45;;;;;;;;;;4990479;28;20386;-61
2022/11/23 16:49:39;;;;;;;5.93;3.80;;;;;;;;;;4990982;28;20026;-63
2022/11/23 16:52:05;;;;;;;6.82;4.05;;;;;;;;;;5000669;28;20030;-61
2022/11/23 16:54:31;;;;;;;6.57;4.22;;;;;;;;;;4990411;28;20035;-60
2022/11/23 16:56:57;;;;;;;8.60;4.25;;;;;;;;;;4990908;28;20427;-61
2022/11/23 16:59:24;;;;;;;7.10;3.83;;;;;;;;;;4992841;28;20039;-60
2022/11/23 17:01:50;;;;;;;9.20;5.82;;;;;;;;;;4994938;28;20125;-61
2022/11/23 17:04:16;;;;;;;5.47;3.53;;;;;;;;;;4994781;28;20018;-62
2022/11/23 17:06:43;;;;;;;6.53;3.97;;;;;;;;;;4994287;28;20109;-61
2022/11/23 17:09:09;;;;;;;6.65;3.88;;;;;;;;;;4994869;28;20030;-61
2022/11/23 17:11:47;;;;;;;6.45;4.10;;;;;;;;;;4994598;28;20441;-60
2022/11/23 17:14:14;;;;;;;6.90;3.92;;;;;;;;;;4994569;28;20049;-60
2022/11/23 17:16:40;;;;;;;6.50;4.05;;;;;;;;;;4994285;28;20058;-60
2022/11/23 17:19:14;;;;;;;6.93;4.30;;;;;;;;;;4994179;28;20418;-61
2022/11/23 17:21:40;;;;;;;6.03;3.60;;;;;;;;;;4994371;28;20030;-61
2022/11/23 17:24:06;;;;;;;6.47;4.28;;;;;;;;;;4993994;28;20033;-61
2022/11/23 17:26:36;;;;;;;6.10;3.78;;;;;;;;;;4994547;28;20023;-62
2022/11/23 17:29:05;;;;;;;5.78;3.75;;;;;;;;;;4993879;28;20093;-60
2022/11/23 17:31:31;;;;;;;5.72;3.58;;;;;;;;;;4993771;28;20026;-61
2022/11/23 17:33:57;;;;;;;6.30;3.92;;;;;;;;;;4994088;28;20121;-60
2022/11/23 17:36:24;;;;;;;8.30;4.60;;;;;;;;;;4994341;28;20031;-62
2022/11/23 17:38:50;;;;;;;8.23;4.88;;;;;;;;;;4983441;28;20030;-61
2022/11/23 17:41:16;;;;;;;8.00;5.32;;;;;;;;;;4980543;28;20038;-61
2022/11/23 17:43:42;;;;;;;9.30;5.45;;;;;;;;;;4986887;28;20030;-61
2022/11/23 17:46:15;;;;;;;7.22;4.70;;;;;;;;;;4983974;28;20104;-64
2022/11/23 17:48:41;;;;;;;7.00;4.38;;;;;;;;;;4979724;28;20023;-60
2022/11/23 17:51:08;;;;;;;8.23;4.72;;;;;;;;;;4994003;28;20036;-62
2022/11/23 17:53:34;;;;;;;8.48;4.63;;;;;;;;;;4993375;28;20393;-61
2022/11/23 17:56:01;;;;;;;10.07;6.00;;;;;;;;;;4981976;28;20030;-59
2022/11/23 17:58:27;;;;;;;8.70;4.25;;;;;;;;;;4980411;28;20523;-59
2022/11/23 18:00:53;;;;;;;6.70;4.03;;;;;;;;;;4979870;28;20117;-59
2022/11/23 18:03:19;;;;;;;5.95;4.22;;;;;;;;;;4981190;28;20474;-62
2022/11/23 18:05:45;;;;;;;9.00;5.03;;;;;;;;;;4980872;28;20085;-60
2022/11/23 18:08:11;;;;;;;6.82;4.47;;;;;;;;;;4974527;28;20078;-63
2022/11/23 18:10:37;;;;;;;5.72;3.67;;;;;;;;;;4986966;28;20049;-61
2022/11/23 18:13:03;;;;;;;5.32;3.20;;;;;;;;;;4965264;28;20493;-63
2022/11/23 18:15:29;;;;;;;6.20;4.22;;;;;;;;;;4981667;28;20672;-60
2022/11/23 18:17:55;;;;;;;6.68;4.38;;;;;;;;;;4975110;28;20401;-59
2022/11/23 18:20:21;;;;;;;4.72;3.72;;;;;;;;;;4981165;28;20074;-64
2022/11/23 18:22:47;;;;;;;6.03;4.00;;;;;;;;;;4983727;28;20434;-61
2022/11/23 18:25:14;;;;;;;8.25;4.57;;;;;;;;;;4981215;28;20039;-60
2022/11/23 18:27:40;;;;;;;5.82;3.33;;;;;;;;;;4983139;28;20482;-60
2022/11/23 18:30:07;;;;;;;4.05;2.90;;;;;;;;;;4983294;28;20074;-67
2022/11/23 18:32:33;;;;;;;5.05;3.00;;;;;;;;;;4955883;28;20030;-66
2022/11/23 18:34:59;;;;;;;5.20;2.97;;;;;;;;;;4970774;28;20196;-67
2022/11/23 18:37:25;;;;;;;4.55;2.97;;;;;;;;;;4973835;28;20030;-60
2022/11/23 18:39:51;;;;;;;4.15;2.92;;;;;;;;;;4978343;28;20105;-67
2022/11/23 18:42:17;;;;;;;5.72;2.47;;;;;;;;;;4977711;28;20030;-60
2022/11/23 18:44:43;;;;;;;4.45;2.70;;;;;;;;;;4988148;28;20479;-60
2022/11/23 18:47:09;;;;;;;5.55;2.75;;;;;;;;;;4980267;28;20034;-60
2022/11/23 18:49:35;;;;;;;4.70;3.00;;;;;;;;;;4979353;28;20027;-61
2022/11/23 18:52:01;;;;;;;4.68;2.72;;;;;;;;;;4979598;28;20026;-60
2022/11/23 18:54:27;;;;;;;4.55;2.72;;;;;;;;;;4977751;28;20382;-61
2022/11/23 18:56:53;;;;;;;4.20;2.70;;;;;;;;;;4986144;28;20098;-60
2022/11/23 18:59:21;;;;;;;4.45;2.70;;;;;;;;;;4991125;28;20073;-61
2022/11/23 19:01:47;;;;;;;4.25;2.58;;;;;;;;;;4980947;28;20049;-60
2022/11/23 19:04:13;;;;;;;4.32;2.78;;;;;;;;;;4982733;28;20042;-60
2022/11/23 19:06:39;;;;;;;5.57;3.55;;;;;;;;;;4973284;28;20026;-60
2022/11/23 19:09:06;;;;;;;5.80;3.55;;;;;;;;;;4979257;28;20117;-61
2022/11/23 19:11:32;;;;;;;5.10;2.90;;;;;;;;;;4984705;28;20390;-60
2022/11/23 19:14:02;;;;;;;5.90;2.80;;;;;;;;;;4975227;28;20411;-60
2022/11/23 19:16:29;;;;;;;5.50;2.95;;;;;;;;;;4988262;28;20057;-65
2022/11/23 19:19:02;;;;;;;6.72;3.92;;;;;;;;;;4978088;28;20030;-64
2022/11/23 19:21:29;;;;;;;6.75;3.85;;;;;;;;;;4972557;28;20443;-61
2022/11/23 19:23:56;;;;;;;5.97;3.60;;;;;;;;;;4972442;28;20073;-61
2022/11/23 19:26:22;;;;;;;7.10;3.80;;;;;;;;;;4972527;28;20066;-62
2022/11/23 19:28:49;;;;;;;6.53;3.63;;;;;;;;;;4972524;28;20122;-60
2022/11/23 19:31:20;;;;;;;4.88;3.35;;;;;;;;;;4972651;28;20117;-61
2022/11/23 19:33:46;;;;;;;6.63;3.47;;;;;;;;;;4974874;28;20047;-60
2022/11/23 19:36:14;;;;;;;5.95;3.55;;;;;;;;;;4972537;28;20019;-61
2022/11/23 19:38:40;;;;;;;6.40;3.45;;;;;;;;;;4971800;28;20029;-60
2022/11/23 19:41:06;;;;;;;8.13;3.70;;;;;;;;;;4974638;28;20038;-66
2022/11/23 19:43:32;;;;;;;6.47;3.58;;;;;;;;;;4971866;28;20065;-63
2022/11/23 19:45:59;;;;;;;5.82;3.40;;;;;;;;;;4974898;28;20022;-61
2022/11/23 19:48:26;;;;;;;4.93;3.17;;;;;;;;;;4978099;28;20413;-66
2022/11/23 19:50:56;;;;;;;4.90;3.65;;;;;;;;;;4980723;28;20023;-61
2022/11/23 19:53:23;;;;;;;7.75;4.15;;;;;;;;;;4982334;28;20026;-61
2022/11/23 19:55:49;;;;;;;7.10;3.88;;;;;;;;;;4972026;28;20435;-60
2022/11/23 19:58:15;;;;;;;6.80;4.18;;;;;;;;;;4972188;28;20039;-61
2022/11/23 20:00:45;;;;;;;6.57;3.90;;;;;;;;;;4985382;28;20038;-60
2022/11/23 20:03:16;;;;;;;6.00;3.90;;;;;;;;;;4990323;28;20486;-60
2022/11/23 20:05:53;;;;;;;10.05;3.63;;;;;;;;;;4991608;28;20463;-60
2022/11/23 20:08:19;;;;;;;6.38;3.72;;;;;;;;;;4990874;28;20034;-60
2022/11/23 20:10:45;;;;;;;5.93;3.65;;;;;;;;;;4972423;28;20394;-60
2022/11/23 20:13:11;;;;;;;6.13;3.35;;;;;;;;;;4991074;28;20033;-63
2022/11/23 20:15:37;;;;;;;4.65;2.92;;;;;;;;;;4990952;28;20034;-60
2022/11/23 20:18:03;;;;;;;5.60;3.55;;;;;;;;;;4990582;28;20026;-60
2022/11/23 20:20:30;;;;;;;5.45;3.10;;;;;;;;;;4991000;28;20394;-61
2022/11/23 20:22:56;;;;;;;4.35;3.10;;;;;;;;;;4990999;28;20030;-61
2022/11/23 20:25:22;;;;;;;4.60;3.03;;;;;;;;;;4990832;28;20034;-60
2022/11/23 20:27:48;;;;;;;5.88;3.15;;;;;;;;;;4991507;28;20110;-59
2022/11/23 20:30:15;;;;;;;7.72;3.33;;;;;;;;;;4971658;28;20114;-65
2022/11/23 20:32:41;;;;;;;6.07;2.90;;;;;;;;;;4986427;28;20026;-64
2022/11/23 20:35:07;;;;;;;4.68;2.70;;;;;;;;;;4995076;28;20447;-66
2022/11/23 20:37:33;;;;;;;7.93;3.10;;;;;;;;;;4994606;28;20104;-63
2022/11/23 20:39:59;;;;;;;6.00;3.00;;;;;;;;;;4985775;28;20080;-62
2022/11/23 20:42:25;;;;;;;5.35;3.17;;;;;;;;;;4982095;28;20792;-62
2022/11/23 20:44:51;;;;;;;5.38;2.88;;;;;;;;;;4982550;28;20034;-61
2022/11/23 20:47:17;;;;;;;5.85;3.25;;;;;;;;;;4984174;28;20395;-61
2022/11/23 20:49:43;;;;;;;5.78;3.35;;;;;;;;;;4981025;28;20031;-62
2022/11/23 20:52:09;;;;;;;4.50;3.08;;;;;;;;;;4981711;28;20034;-62
2022/11/23 20:54:35;;;;;;;8.20;5.30;;;;;;;;;;4981060;28;20031;-64
2022/11/23 20:57:02;;;;;;;7.25;3.00;;;;;;;;;;4980982;28;20023;-66
2022/11/23 20:59:28;;;;;;;5.47;3.13;;;;;;;;;;4978832;28;20026;-63
2022/11/23 21:01:54;;;;;;;6.40;3.20;;;;;;;;;;4984307;28;20029;-62
2022/11/23 21:04:20;;;;;;;4.57;3.20;;;;;;;;;;4984879;28;20038;-63
2022/11/23 21:06:46;;;;;;;5.15;2.97;;;;;;;;;;4981897;28;20027;-65
2022/11/23 21:09:12;;;;;;;6.25;3.22;;;;;;;;;;4989028;28;20065;-62
2022/11/23 21:14:26;;;;;;;8.10;3.90;;;;;;;;;;4981798;28;20053;-63
2022/11/23 21:16:57;;;;;;;6.45;3.80;;;;;;;;;;4974823;28;20027;-63
2022/11/23 21:19:24;;;;;;;6.20;3.30;;;;;;;;;;4957730;28;20030;-61
2022/11/23 21:21:50;;;;;;;6.90;3.38;;;;;;;;;;4974573;28;20033;-61
2022/11/23 21:24:16;;;;;;;4.88;3.20;;;;;;;;;;4974617;28;20447;-61
2022/11/23 21:26:42;;;;;;;4.50;3.10;;;;;;;;;;4990245;28;20038;-61
2022/11/23 21:29:10;;;;;;;5.63;3.40;;;;;;;;;;4985418;28;20050;-61
2022/11/23 21:31:39;;;;;;;4.97;3.60;;;;;;;;;;4994364;28;20056;-65
2022/11/23 21:34:09;;;;;;;6.30;4.43;;;;;;;;;;4994104;28;20062;-57
2022/11/23 21:36:36;;;;;;;6.00;4.10;;;;;;;;;;4994078;28;20382;-62
2022/11/23 21:39:03;;;;;;;6.35;4.13;;;;;;;;;;4993913;28;20612;-60
2022/11/23 21:41:29;;;;;;;6.88;4.72;;;;;;;;;;4993953;28;20070;-61
2022/11/23 21:43:55;;;;;;;7.43;5.05;;;;;;;;;;4994023;28;20030;-60
2022/11/23 21:46:23;;;;;;;7.93;4.93;;;;;;;;;;4994252;28;20279;-63
2022/11/23 21:48:51;;;;;;;10.38;4.90;;;;;;;;;;4993737;28;20030;-64
2022/11/23 21:51:17;;;;;;;6.60;4.97;;;;;;;;;;4993677;28;20069;-62
2022/11/23 21:53:43;;;;;;;8.50;5.05;;;;;;;;;;4993758;28;20053;-61
2022/11/23 21:56:13;;;;;;;7.53;4.93;;;;;;;;;;4994060;28;20081;-61
2022/11/23 21:58:40;;;;;;;7.00;5.10;;;;;;;;;;4993327;28;20084;-59
2022/11/23 22:01:08;;;;;;;8.38;5.13;;;;;;;;;;4994156;28;20030;-67
2022/11/23 22:03:37;;;;;;;10.43;5.40;;;;;;;;;;4993641;28;20036;-62
2022/11/23 22:06:03;;;;;;;7.10;5.22;;;;;;;;;;4993862;28;20422;-62
2022/11/23 22:08:29;;;;;;;8.20;5.35;;;;;;;;;;4993512;28;20530;-62
2022/11/23 22:10:55;;;;;;;8.32;5.80;;;;;;;;;;4993695;28;20030;-61
2022/11/23 22:13:22;;;;;;;8.25;4.90;;;;;;;;;;4993555;28;20085;-64
2022/11/23 22:15:48;;;;;;;7.40;5.18;;;;;;;;;;4993371;28;20045;-64
2022/11/23 22:18:14;;;;;;;7.32;5.10;;;;;;;;;;4993332;28;20030;-62
2022/11/23 22:20:40;;;;;;;8.50;5.07;;;;;;;;;;4993413;28;20026;-62
2022/11/23 22:23:06;;;;;;;8.35;5.32;;;;;;;;;;4993293;28;20100;-65
2022/11/23 22:25:32;;;;;;;9.27;5.78;;;;;;;;;;4993450;28;20033;-62
2022/11/23 22:27:58;;;;;;;7.72;5.47;;;;;;;;;;4992737;28;20027;-62
2022/11/23 22:30:24;;;;;;;7.32;5.35;;;;;;;;;;4992882;28;20073;-60
2022/11/23 22:32:50;;;;;;;10.75;5.55;;;;;;;;;;4993359;28;20034;-59
2022/11/23 22:35:16;;;;;;;7.60;5.15;;;;;;;;;;4992975;28;20059;-60
2022/11/23 22:37:42;;;;;;;8.32;5.38;;;;;;;;;;4993109;28;20026;-59
2022/11/23 22:40:09;;;;;;;7.82;5.63;;;;;;;;;;4992965;28;20386;-60
2022/11/23 22:42:35;;;;;;;7.35;5.38;;;;;;;;;;4992561;28;20049;-60
2022/11/23 22:45:01;;;;;;;6.65;5.43;;;;;;;;;;4992720;28;20471;-61
2022/11/23 22:47:27;;;;;;;6.32;4.90;;;;;;;;;;4995033;28;20033;-68
2022/11/23 22:49:53;;;;;;;8.63;5.30;;;;;;;;;;4984121;28;20054;-66
2022/11/23 22:52:20;;;;;;;8.00;5.45;;;;;;;;;;4986290;28;20030;-69
